sensor_id;sensor_type;location;lat;lon;timestamp;P1;durP1;ratioP1;P2;durP2;ratioP2
37067;SDS011;22982;42.848;25.468;2023-04-30T00:03:51;14.10;;;7.28;;
37067;SDS011;22982;42.848;25.468;2023-04-30T00:08:54;13.10;;;7.55;;
37067;SDS011;22982;42.848;25.468;2023-04-30T00:13:57;11.95;;;7.95;;
37067;SDS011;22982;42.848;25.468;2023-04-30T00:18:59;6.63;;;4.55;;
37067;SDS011;22982;42.848;25.468;2023-04-30T00:24:01;11.98;;;6.15;;
37067;SDS011;22982;42.848;25.468;2023-04-30T00:29:05;8.93;;;6.07;;
37067;SDS011;22982;42.848;25.468;2023-04-30T00:34:07;8.90;;;5.68;;
37067;SDS011;22982;42.848;25.468;2023-04-30T00:39:10;8.23;;;5.72;;
37067;SDS011;22982;42.848;25.468;2023-04-30T00:44:13;6.95;;;5.07;;
37067;SDS011;22982;42.848;25.468;2023-04-30T00:49:15;10.25;;;6.38;;
37067;SDS011;22982;42.848;25.468;2023-04-30T00:54:19;8.07;;;5.35;;
37067;SDS011;22982;42.848;25.468;2023-04-30T00:59:22;10.27;;;5.40;;
37067;SDS011;22982;42.848;25.468;2023-04-30T01:04:25;8.07;;;5.80;;
37067;SDS011;22982;42.848;25.468;2023-04-30T01:09:30;8.73;;;5.10;;
37067;SDS011;22982;42.848;25.468;2023-04-30T01:14:37;14.00;;;6.80;;
37067;SDS011;22982;42.848;25.468;2023-04-30T01:19:48;8.70;;;5.45;;
37067;SDS011;22982;42.848;25.468;2023-04-30T01:24:56;9.98;;;5.97;;
37067;SDS011;22982;42.848;25.468;2023-04-30T01:30:13;9.05;;;5.60;;
37067;SDS011;22982;42.848;25.468;2023-04-30T01:35:18;7.57;;;5.53;;
37067;SDS011;22982;42.848;25.468;2023-04-30T01:40:22;7.68;;;5.65;;
37067;SDS011;22982;42.848;25.468;2023-04-30T01:50:48;15.25;;;6.47;;
37067;SDS011;22982;42.848;25.468;2023-04-30T01:56:03;7.35;;;5.75;;
37067;SDS011;22982;42.848;25.468;2023-04-30T02:01:24;8.45;;;5.50;;
37067;SDS011;22982;42.848;25.468;2023-04-30T02:06:28;9.20;;;6.28;;
37067;SDS011;22982;42.848;25.468;2023-04-30T02:11:32;9.23;;;5.35;;
37067;SDS011;22982;42.848;25.468;2023-04-30T02:16:35;8.77;;;5.30;;
37067;SDS011;22982;42.848;25.468;2023-04-30T02:21:38;7.80;;;5.45;;
37067;SDS011;22982;42.848;25.468;2023-04-30T02:26:40;12.45;;;5.57;;
37067;SDS011;22982;42.848;25.468;2023-04-30T02:31:44;8.32;;;6.47;;
37067;SDS011;22982;42.848;25.468;2023-04-30T02:36:46;8.77;;;5.72;;
37067;SDS011;22982;42.848;25.468;2023-04-30T02:41:48;6.65;;;5.00;;
37067;SDS011;22982;42.848;25.468;2023-04-30T02:46:51;8.57;;;5.38;;
37067;SDS011;22982;42.848;25.468;2023-04-30T02:51:54;8.40;;;6.43;;
37067;SDS011;22982;42.848;25.468;2023-04-30T02:56:57;14.73;;;9.18;;
37067;SDS011;22982;42.848;25.468;2023-04-30T03:01:59;7.88;;;5.93;;
37067;SDS011;22982;42.848;25.468;2023-04-30T03:07:02;9.73;;;5.07;;
37067;SDS011;22982;42.848;25.468;2023-04-30T03:12:05;7.78;;;5.22;;
37067;SDS011;22982;42.848;25.468;2023-04-30T03:17:07;8.10;;;5.53;;
37067;SDS011;22982;42.848;25.468;2023-04-30T03:22:10;7.88;;;5.78;;
37067;SDS011;22982;42.848;25.468;2023-04-30T03:27:13;6.60;;;5.25;;
37067;SDS011;22982;42.848;25.468;2023-04-30T03:32:18;9.93;;;5.85;;
37067;SDS011;22982;42.848;25.468;2023-04-30T03:37:20;8.52;;;4.97;;
37067;SDS011;22982;42.848;25.468;2023-04-30T03:42:23;6.97;;;5.28;;
37067;SDS011;22982;42.848;25.468;2023-04-30T03:47:25;9.20;;;6.25;;
37067;SDS011;22982;42.848;25.468;2023-04-30T03:52:28;8.23;;;6.13;;
37067;SDS011;22982;42.848;25.468;2023-04-30T03:57:32;7.45;;;5.50;;
37067;SDS011;22982;42.848;25.468;2023-04-30T04:02:35;9.45;;;6.13;;
37067;SDS011;22982;42.848;25.468;2023-04-30T04:07:39;8.77;;;5.47;;
37067;SDS011;22982;42.848;25.468;2023-04-30T04:12:42;6.15;;;4.88;;
37067;SDS011;22982;42.848;25.468;2023-04-30T04:17:45;7.53;;;5.65;;
37067;SDS011;22982;42.848;25.468;2023-04-30T04:22:48;6.88;;;5.75;;
37067;SDS011;22982;42.848;25.468;2023-04-30T04:27:51;9.38;;;6.05;;
37067;SDS011;22982;42.848;25.468;2023-04-30T04:32:53;8.45;;;5.70;;
37067;SDS011;22982;42.848;25.468;2023-04-30T04:37:56;9.20;;;5.45;;
37067;SDS011;22982;42.848;25.468;2023-04-30T04:42:59;10.73;;;5.20;;
37067;SDS011;22982;42.848;25.468;2023-04-30T04:48:01;8.38;;;4.65;;
37067;SDS011;22982;42.848;25.468;2023-04-30T04:53:04;14.65;;;5.00;;
37067;SDS011;22982;42.848;25.468;2023-04-30T04:58:06;5.30;;;3.88;;
37067;SDS011;22982;42.848;25.468;2023-04-30T05:03:09;9.52;;;4.15;;
37067;SDS011;22982;42.848;25.468;2023-04-30T05:08:12;8.68;;;4.10;;
37067;SDS011;22982;42.848;25.468;2023-04-30T05:13:14;7.93;;;5.20;;
37067;SDS011;22982;42.848;25.468;2023-04-30T05:18:16;4.68;;;3.95;;
37067;SDS011;22982;42.848;25.468;2023-04-30T05:23:20;9.35;;;4.78;;
37067;SDS011;22982;42.848;25.468;2023-04-30T05:28:22;6.53;;;4.22;;
37067;SDS011;22982;42.848;25.468;2023-04-30T05:33:25;4.63;;;3.83;;
37067;SDS011;22982;42.848;25.468;2023-04-30T05:38:28;4.95;;;3.50;;
37067;SDS011;22982;42.848;25.468;2023-04-30T05:43:31;7.75;;;2.78;;
37067;SDS011;22982;42.848;25.468;2023-04-30T05:48:33;5.72;;;3.58;;
37067;SDS011;22982;42.848;25.468;2023-04-30T05:53:35;3.90;;;2.55;;
37067;SDS011;22982;42.848;25.468;2023-04-30T05:58:38;4.82;;;2.72;;
37067;SDS011;22982;42.848;25.468;2023-04-30T06:03:40;3.65;;;2.40;;
37067;SDS011;22982;42.848;25.468;2023-04-30T06:08:43;3.20;;;2.40;;
37067;SDS011;22982;42.848;25.468;2023-04-30T06:13:46;3.78;;;2.50;;
37067;SDS011;22982;42.848;25.468;2023-04-30T06:18:50;6.90;;;2.95;;
37067;SDS011;22982;42.848;25.468;2023-04-30T06:23:54;2.97;;;2.47;;
37067;SDS011;22982;42.848;25.468;2023-04-30T06:28:57;5.85;;;3.10;;
37067;SDS011;22982;42.848;25.468;2023-04-30T06:33:59;3.63;;;2.67;;
37067;SDS011;22982;42.848;25.468;2023-04-30T06:39:02;6.03;;;3.03;;
37067;SDS011;22982;42.848;25.468;2023-04-30T06:44:07;6.15;;;2.72;;
37067;SDS011;22982;42.848;25.468;2023-04-30T06:49:09;8.05;;;2.90;;
37067;SDS011;22982;42.848;25.468;2023-04-30T06:54:13;4.60;;;2.55;;
37067;SDS011;22982;42.848;25.468;2023-04-30T06:59:15;2.83;;;2.25;;
37067;SDS011;22982;42.848;25.468;2023-04-30T07:04:18;3.45;;;2.40;;
37067;SDS011;22982;42.848;25.468;2023-04-30T07:09:21;4.90;;;3.05;;
37067;SDS011;22982;42.848;25.468;2023-04-30T07:14:23;3.53;;;2.38;;
37067;SDS011;22982;42.848;25.468;2023-04-30T07:19:26;6.85;;;2.63;;
37067;SDS011;22982;42.848;25.468;2023-04-30T07:24:28;6.25;;;2.65;;
37067;SDS011;22982;42.848;25.468;2023-04-30T07:29:32;4.65;;;2.50;;
37067;SDS011;22982;42.848;25.468;2023-04-30T07:34:35;2.85;;;2.35;;
37067;SDS011;22982;42.848;25.468;2023-04-30T07:39:37;3.78;;;2.42;;
37067;SDS011;22982;42.848;25.468;2023-04-30T07:44:40;5.00;;;2.80;;
37067;SDS011;22982;42.848;25.468;2023-04-30T07:49:43;5.75;;;3.72;;
37067;SDS011;22982;42.848;25.468;2023-04-30T07:54:46;3.75;;;2.58;;
37067;SDS011;22982;42.848;25.468;2023-04-30T07:59:48;4.82;;;2.50;;
37067;SDS011;22982;42.848;25.468;2023-04-30T08:04:53;6.30;;;3.30;;
37067;SDS011;22982;42.848;25.468;2023-04-30T08:09:56;4.43;;;3.13;;
37067;SDS011;22982;42.848;25.468;2023-04-30T08:14:59;4.25;;;3.00;;
37067;SDS011;22982;42.848;25.468;2023-04-30T08:20:04;4.32;;;2.47;;
37067;SDS011;22982;42.848;25.468;2023-04-30T08:25:11;3.45;;;2.50;;
37067;SDS011;22982;42.848;25.468;2023-04-30T08:30:13;5.15;;;2.80;;
37067;SDS011;22982;42.848;25.468;2023-04-30T08:35:16;2.53;;;2.13;;
37067;SDS011;22982;42.848;25.468;2023-04-30T08:40:19;4.47;;;2.47;;
37067;SDS011;22982;42.848;25.468;2023-04-30T08:45:26;4.13;;;2.22;;
37067;SDS011;22982;42.848;25.468;2023-04-30T08:50:30;3.42;;;2.35;;
37067;SDS011;22982;42.848;25.468;2023-04-30T08:55:33;3.42;;;2.03;;
37067;SDS011;22982;42.848;25.468;2023-04-30T09:00:36;4.20;;;2.67;;
37067;SDS011;22982;42.848;25.468;2023-04-30T09:05:40;3.58;;;2.20;;
37067;SDS011;22982;42.848;25.468;2023-04-30T09:10:43;3.85;;;2.83;;
37067;SDS011;22982;42.848;25.468;2023-04-30T09:15:49;6.68;;;2.28;;
37067;SDS011;22982;42.848;25.468;2023-04-30T09:20:53;3.78;;;2.00;;
37067;SDS011;22982;42.848;25.468;2023-04-30T09:26:03;4.60;;;2.60;;
37067;SDS011;22982;42.848;25.468;2023-04-30T09:31:13;4.20;;;2.35;;
37067;SDS011;22982;42.848;25.468;2023-04-30T09:36:23;5.93;;;2.05;;
37067;SDS011;22982;42.848;25.468;2023-04-30T09:41:26;2.90;;;2.22;;
37067;SDS011;22982;42.848;25.468;2023-04-30T09:46:30;3.05;;;2.30;;
37067;SDS011;22982;42.848;25.468;2023-04-30T09:51:35;2.85;;;2.30;;
37067;SDS011;22982;42.848;25.468;2023-04-30T09:56:56;3.13;;;2.30;;
37067;SDS011;22982;42.848;25.468;2023-04-30T10:02:01;3.55;;;2.40;;
37067;SDS011;22982;42.848;25.468;2023-04-30T10:07:06;3.65;;;3.13;;
37067;SDS011;22982;42.848;25.468;2023-04-30T10:12:15;5.35;;;2.65;;
37067;SDS011;22982;42.848;25.468;2023-04-30T10:17:26;4.55;;;2.40;;
37067;SDS011;22982;42.848;25.468;2023-04-30T10:22:31;3.05;;;2.42;;
37067;SDS011;22982;42.848;25.468;2023-04-30T10:27:35;2.90;;;2.30;;
37067;SDS011;22982;42.848;25.468;2023-04-30T10:37:58;2.65;;;2.35;;
37067;SDS011;22982;42.848;25.468;2023-04-30T10:43:17;4.15;;;2.80;;
37067;SDS011;22982;42.848;25.468;2023-04-30T10:48:21;4.15;;;2.65;;
37067;SDS011;22982;42.848;25.468;2023-04-30T10:53:31;5.28;;;2.80;;
37067;SDS011;22982;42.848;25.468;2023-04-30T10:58:35;3.92;;;2.50;;
37067;SDS011;22982;42.848;25.468;2023-04-30T11:03:41;5.80;;;2.55;;
37067;SDS011;22982;42.848;25.468;2023-04-30T11:09:03;3.60;;;2.67;;
37067;SDS011;22982;42.848;25.468;2023-04-30T11:14:06;4.43;;;2.97;;
37067;SDS011;22982;42.848;25.468;2023-04-30T11:19:12;3.83;;;2.60;;
37067;SDS011;22982;42.848;25.468;2023-04-30T11:24:15;5.50;;;2.70;;
37067;SDS011;22982;42.848;25.468;2023-04-30T11:29:20;3.33;;;2.40;;
37067;SDS011;22982;42.848;25.468;2023-04-30T11:34:23;4.07;;;2.63;;
37067;SDS011;22982;42.848;25.468;2023-04-30T11:39:27;3.22;;;2.60;;
37067;SDS011;22982;42.848;25.468;2023-04-30T11:44:30;4.15;;;2.25;;
37067;SDS011;22982;42.848;25.468;2023-04-30T11:49:33;7.07;;;2.88;;
37067;SDS011;22982;42.848;25.468;2023-04-30T11:54:36;4.53;;;2.40;;
37067;SDS011;22982;42.848;25.468;2023-04-30T11:59:39;4.75;;;2.90;;
37067;SDS011;22982;42.848;25.468;2023-04-30T12:04:43;4.07;;;2.85;;
37067;SDS011;22982;42.848;25.468;2023-04-30T12:09:52;2.90;;;2.22;;
37067;SDS011;22982;42.848;25.468;2023-04-30T12:15:02;5.13;;;2.65;;
37067;SDS011;22982;42.848;25.468;2023-04-30T12:20:13;3.80;;;2.47;;
37067;SDS011;22982;42.848;25.468;2023-04-30T12:25:17;5.00;;;3.20;;
37067;SDS011;22982;42.848;25.468;2023-04-30T12:30:24;7.55;;;2.85;;
37067;SDS011;22982;42.848;25.468;2023-04-30T12:35:28;4.88;;;2.80;;
37067;SDS011;22982;42.848;25.468;2023-04-30T12:40:33;5.35;;;2.70;;
37067;SDS011;22982;42.848;25.468;2023-04-30T12:45:43;5.05;;;3.70;;
37067;SDS011;22982;42.848;25.468;2023-04-30T12:50:57;6.97;;;3.20;;
37067;SDS011;22982;42.848;25.468;2023-04-30T12:56:15;3.20;;;2.42;;
37067;SDS011;22982;42.848;25.468;2023-04-30T13:01:19;3.60;;;2.80;;
37067;SDS011;22982;42.848;25.468;2023-04-30T13:06:24;4.13;;;2.70;;
37067;SDS011;22982;42.848;25.468;2023-04-30T13:11:28;4.18;;;2.97;;
37067;SDS011;22982;42.848;25.468;2023-04-30T13:16:31;4.35;;;2.63;;
37067;SDS011;22982;42.848;25.468;2023-04-30T13:21:33;6.78;;;3.28;;
37067;SDS011;22982;42.848;25.468;2023-04-30T13:26:36;3.38;;;2.75;;
37067;SDS011;22982;42.848;25.468;2023-04-30T13:31:38;4.28;;;2.47;;
37067;SDS011;22982;42.848;25.468;2023-04-30T13:36:42;4.93;;;3.67;;
37067;SDS011;22982;42.848;25.468;2023-04-30T13:41:47;3.25;;;2.63;;
37067;SDS011;22982;42.848;25.468;2023-04-30T13:46:50;5.57;;;3.13;;
37067;SDS011;22982;42.848;25.468;2023-04-30T13:51:53;3.13;;;2.75;;
37067;SDS011;22982;42.848;25.468;2023-04-30T13:56:55;4.28;;;2.97;;
37067;SDS011;22982;42.848;25.468;2023-04-30T14:02:00;5.70;;;3.10;;
37067;SDS011;22982;42.848;25.468;2023-04-30T14:07:03;4.13;;;2.90;;
37067;SDS011;22982;42.848;25.468;2023-04-30T14:12:05;3.55;;;2.88;;
37067;SDS011;22982;42.848;25.468;2023-04-30T14:17:08;5.32;;;3.20;;
37067;SDS011;22982;42.848;25.468;2023-04-30T14:22:10;14.57;;;10.45;;
37067;SDS011;22982;42.848;25.468;2023-04-30T14:27:13;208.38;;;109.60;;
37067;SDS011;22982;42.848;25.468;2023-04-30T14:32:16;193.13;;;93.72;;
37067;SDS011;22982;42.848;25.468;2023-04-30T14:37:19;97.78;;;55.35;;
37067;SDS011;22982;42.848;25.468;2023-04-30T14:42:21;42.42;;;26.83;;
37067;SDS011;22982;42.848;25.468;2023-04-30T14:47:27;36.88;;;22.33;;
37067;SDS011;22982;42.848;25.468;2023-04-30T14:52:32;14.60;;;10.27;;
37067;SDS011;22982;42.848;25.468;2023-04-30T14:57:37;6.10;;;3.45;;
37067;SDS011;22982;42.848;25.468;2023-04-30T15:02:39;5.25;;;2.60;;
37067;SDS011;22982;42.848;25.468;2023-04-30T15:07:43;6.05;;;3.60;;
37067;SDS011;22982;42.848;25.468;2023-04-30T15:12:45;6.13;;;3.97;;
37067;SDS011;22982;42.848;25.468;2023-04-30T15:17:47;7.65;;;3.25;;
37067;SDS011;22982;42.848;25.468;2023-04-30T15:22:50;5.47;;;2.65;;
37067;SDS011;22982;42.848;25.468;2023-04-30T15:27:55;4.03;;;2.72;;
37067;SDS011;22982;42.848;25.468;2023-04-30T15:32:59;3.17;;;2.58;;
37067;SDS011;22982;42.848;25.468;2023-04-30T15:38:01;6.60;;;4.50;;
37067;SDS011;22982;42.848;25.468;2023-04-30T15:43:04;9.23;;;6.18;;
37067;SDS011;22982;42.848;25.468;2023-04-30T15:48:07;11.05;;;7.82;;
37067;SDS011;22982;42.848;25.468;2023-04-30T15:53:09;8.63;;;4.55;;
37067;SDS011;22982;42.848;25.468;2023-04-30T15:58:12;11.63;;;7.85;;
37067;SDS011;22982;42.848;25.468;2023-04-30T16:03:14;49.03;;;31.95;;
37067;SDS011;22982;42.848;25.468;2023-04-30T16:08:18;20.15;;;14.75;;
37067;SDS011;22982;42.848;25.468;2023-04-30T16:13:20;12.18;;;7.50;;
37067;SDS011;22982;42.848;25.468;2023-04-30T16:18:22;6.57;;;3.58;;
37067;SDS011;22982;42.848;25.468;2023-04-30T16:23:26;4.07;;;3.70;;
37067;SDS011;22982;42.848;25.468;2023-04-30T16:28:29;4.32;;;3.00;;
37067;SDS011;22982;42.848;25.468;2023-04-30T16:33:31;3.67;;;3.03;;
37067;SDS011;22982;42.848;25.468;2023-04-30T16:38:34;9.90;;;5.13;;
37067;SDS011;22982;42.848;25.468;2023-04-30T16:43:37;6.20;;;5.07;;
37067;SDS011;22982;42.848;25.468;2023-04-30T16:48:41;8.50;;;3.95;;
37067;SDS011;22982;42.848;25.468;2023-04-30T16:53:43;6.57;;;4.75;;
37067;SDS011;22982;42.848;25.468;2023-04-30T16:58:46;25.98;;;18.67;;
37067;SDS011;22982;42.848;25.468;2023-04-30T17:03:49;6.45;;;4.80;;
37067;SDS011;22982;42.848;25.468;2023-04-30T17:08:52;7.97;;;5.30;;
37067;SDS011;22982;42.848;25.468;2023-04-30T17:13:55;8.43;;;6.10;;
37067;SDS011;22982;42.848;25.468;2023-04-30T17:18:59;6.70;;;5.07;;
37067;SDS011;22982;42.848;25.468;2023-04-30T17:24:01;8.55;;;5.32;;
37067;SDS011;22982;42.848;25.468;2023-04-30T17:29:05;9.65;;;5.70;;
37067;SDS011;22982;42.848;25.468;2023-04-30T17:34:07;6.78;;;5.20;;
37067;SDS011;22982;42.848;25.468;2023-04-30T17:39:09;12.98;;;9.98;;
37067;SDS011;22982;42.848;25.468;2023-04-30T17:44:16;14.02;;;9.07;;
37067;SDS011;22982;42.848;25.468;2023-04-30T17:49:20;8.38;;;6.05;;
37067;SDS011;22982;42.848;25.468;2023-04-30T17:54:23;10.50;;;7.88;;
37067;SDS011;22982;42.848;25.468;2023-04-30T17:59:26;9.95;;;7.78;;
37067;SDS011;22982;42.848;25.468;2023-04-30T18:04:30;12.88;;;7.78;;
37067;SDS011;22982;42.848;25.468;2023-04-30T18:09:33;12.57;;;8.95;;
37067;SDS011;22982;42.848;25.468;2023-04-30T18:14:36;61.47;;;36.95;;
37067;SDS011;22982;42.848;25.468;2023-04-30T18:19:40;9.38;;;6.57;;
37067;SDS011;22982;42.848;25.468;2023-04-30T18:24:45;11.57;;;8.52;;
37067;SDS011;22982;42.848;25.468;2023-04-30T18:29:47;16.52;;;10.98;;
37067;SDS011;22982;42.848;25.468;2023-04-30T18:34:50;13.43;;;8.13;;
37067;SDS011;22982;42.848;25.468;2023-04-30T18:39:53;11.70;;;8.32;;
37067;SDS011;22982;42.848;25.468;2023-04-30T18:44:57;10.93;;;8.35;;
37067;SDS011;22982;42.848;25.468;2023-04-30T18:49:59;12.45;;;8.18;;
37067;SDS011;22982;42.848;25.468;2023-04-30T18:55:01;10.70;;;7.20;;
37067;SDS011;22982;42.848;25.468;2023-04-30T19:00:07;15.82;;;9.80;;
37067;SDS011;22982;42.848;25.468;2023-04-30T19:05:11;14.18;;;10.43;;
37067;SDS011;22982;42.848;25.468;2023-04-30T19:10:15;9.48;;;7.40;;
37067;SDS011;22982;42.848;25.468;2023-04-30T19:15:17;9.77;;;5.82;;
37067;SDS011;22982;42.848;25.468;2023-04-30T19:20:20;10.45;;;7.22;;
37067;SDS011;22982;42.848;25.468;2023-04-30T19:25:25;13.07;;;6.70;;
37067;SDS011;22982;42.848;25.468;2023-04-30T19:30:28;9.07;;;6.35;;
37067;SDS011;22982;42.848;25.468;2023-04-30T19:35:32;11.52;;;7.38;;
37067;SDS011;22982;42.848;25.468;2023-04-30T19:40:36;12.05;;;7.72;;
37067;SDS011;22982;42.848;25.468;2023-04-30T19:45:54;10.32;;;6.80;;
37067;SDS011;22982;42.848;25.468;2023-04-30T19:51:04;8.93;;;7.70;;
37067;SDS011;22982;42.848;25.468;2023-04-30T19:56:10;12.25;;;8.45;;
37067;SDS011;22982;42.848;25.468;2023-04-30T20:01:13;13.20;;;7.93;;
37067;SDS011;22982;42.848;25.468;2023-04-30T20:06:15;9.88;;;8.25;;
37067;SDS011;22982;42.848;25.468;2023-04-30T20:11:19;11.05;;;7.57;;
37067;SDS011;22982;42.848;25.468;2023-04-30T20:16:22;12.90;;;8.32;;
37067;SDS011;22982;42.848;25.468;2023-04-30T20:21:31;10.95;;;7.93;;
37067;SDS011;22982;42.848;25.468;2023-04-30T20:26:33;10.80;;;8.45;;
37067;SDS011;22982;42.848;25.468;2023-04-30T20:31:41;10.98;;;8.35;;
37067;SDS011;22982;42.848;25.468;2023-04-30T20:36:47;11.30;;;7.68;;
37067;SDS011;22982;42.848;25.468;2023-04-30T20:41:50;9.75;;;6.45;;
37067;SDS011;22982;42.848;25.468;2023-04-30T20:46:55;8.50;;;7.05;;
37067;SDS011;22982;42.848;25.468;2023-04-30T20:51:59;12.77;;;7.00;;
37067;SDS011;22982;42.848;25.468;2023-04-30T20:57:01;10.40;;;6.68;;
37067;SDS011;22982;42.848;25.468;2023-04-30T21:02:04;7.50;;;6.72;;
37067;SDS011;22982;42.848;25.468;2023-04-30T21:07:06;9.10;;;7.22;;
37067;SDS011;22982;42.848;25.468;2023-04-30T21:12:08;10.98;;;8.07;;
37067;SDS011;22982;42.848;25.468;2023-04-30T21:22:43;11.60;;;6.53;;
37067;SDS011;22982;42.848;25.468;2023-04-30T21:27:49;8.70;;;7.07;;
37067;SDS011;22982;42.848;25.468;2023-04-30T21:32:53;8.35;;;7.38;;
37067;SDS011;22982;42.848;25.468;2023-04-30T21:38:04;9.25;;;7.78;;
37067;SDS011;22982;42.848;25.468;2023-04-30T21:43:07;8.68;;;6.82;;
37067;SDS011;22982;42.848;25.468;2023-04-30T21:53:58;10.55;;;6.72;;
37067;SDS011;22982;42.848;25.468;2023-04-30T21:59:01;6.72;;;5.68;;
37067;SDS011;22982;42.848;25.468;2023-04-30T22:04:03;11.85;;;7.15;;
37067;SDS011;22982;42.848;25.468;2023-04-30T22:09:09;9.48;;;6.63;;
37067;SDS011;22982;42.848;25.468;2023-04-30T22:14:11;7.03;;;5.78;;
37067;SDS011;22982;42.848;25.468;2023-04-30T22:19:15;10.57;;;7.15;;
37067;SDS011;22982;42.848;25.468;2023-04-30T22:24:17;9.52;;;7.30;;
37067;SDS011;22982;42.848;25.468;2023-04-30T22:29:20;7.88;;;6.88;;
37067;SDS011;22982;42.848;25.468;2023-04-30T22:34:22;9.90;;;6.55;;
37067;SDS011;22982;42.848;25.468;2023-04-30T22:39:24;7.95;;;6.68;;
37067;SDS011;22982;42.848;25.468;2023-04-30T22:44:27;8.23;;;5.70;;
37067;SDS011;22982;42.848;25.468;2023-04-30T22:49:30;8.00;;;6.63;;
37067;SDS011;22982;42.848;25.468;2023-04-30T22:54:33;9.88;;;6.80;;
37067;SDS011;22982;42.848;25.468;2023-04-30T22:59:37;8.80;;;6.43;;
37067;SDS011;22982;42.848;25.468;2023-04-30T23:04:40;7.72;;;6.53;;
37067;SDS011;22982;42.848;25.468;2023-04-30T23:09:43;14.63;;;7.80;;
37067;SDS011;22982;42.848;25.468;2023-04-30T23:14:46;9.05;;;6.00;;
37067;SDS011;22982;42.848;25.468;2023-04-30T23:19:48;9.25;;;6.15;;
37067;SDS011;22982;42.848;25.468;2023-04-30T23:24:51;10.77;;;6.50;;
37067;SDS011;22982;42.848;25.468;2023-04-30T23:29:53;7.97;;;5.90;;
37067;SDS011;22982;42.848;25.468;2023-04-30T23:34:57;7.97;;;5.93;;
37067;SDS011;22982;42.848;25.468;2023-04-30T23:39:59;9.05;;;6.63;;
37067;SDS011;22982;42.848;25.468;2023-04-30T23:45:02;16.63;;;8.68;;
37067;SDS011;22982;42.848;25.468;2023-04-30T23:50:05;9.70;;;7.88;;
37067;SDS011;22982;42.848;25.468;2023-04-30T23:55:08;9.82;;;6.80;;
